Time;durP1;ratioP1;P1;durP2;ratioP2;P2;SDS_P1;SDS_P2;PMS_P1;PMS_P2;Temp;Humidity;BMP_temperature;BMP_pressure;BME280_temperature;BME280_humidity;BME280_pressure;Samples;Min_cycle;Max_cycle;Signal;HPM_P1;HPM_P2
2023/03/22 00:00:44;;;;;;;17.20;8.77;;;12.50;99.90;;;;;;5012671;28;20212;-66
2023/03/22 00:03:10;;;;;;;14.10;7.47;;;12.60;99.90;;;;;;4999626;28;20196;-65
2023/03/22 00:05:35;;;;;;;13.57;8.45;;;12.50;99.90;;;;;;4997636;28;20655;-65
2023/03/22 00:08:05;;;;;;;17.67;9.45;;;12.50;99.90;;;;;;5013586;28;20210;-65
2023/03/22 00:10:32;;;;;;;16.85;9.73;;;12.40;99.90;;;;;;5012881;28;20226;-66
2023/03/22 00:12:59;;;;;;;21.58;10.45;;;12.40;99.90;;;;;;5011602;28;20183;-65
2023/03/22 00:15:25;;;;;;;14.55;8.75;;;12.40;99.90;;;;;;4998824;28;20188;-64
2023/03/22 00:17:51;;;;;;;15.30;8.35;;;12.40;99.90;;;;;;5009576;28;20242;-64
2023/03/22 00:20:18;;;;;;;12.18;7.97;;;12.40;99.90;;;;;;5000445;28;20207;-64
2023/03/22 00:22:45;;;;;;;18.05;8.18;;;12.40;99.90;;;;;;5007627;28;20195;-64
2023/03/22 00:25:10;;;;;;;13.77;7.82;;;12.40;99.90;;;;;;5004535;28;20179;-66
2023/03/22 00:27:36;;;;;;;12.30;7.90;;;12.30;99.90;;;;;;5010748;28;20663;-65
2023/03/22 00:30:03;;;;;;;13.68;7.72;;;12.30;99.90;;;;;;5004781;28;20203;-64
2023/03/22 00:32:32;;;;;;;17.50;9.38;;;12.30;99.90;;;;;;5002385;28;20648;-65
2023/03/22 00:34:58;;;;;;;17.40;8.13;;;12.30;99.90;;;;;;5010405;28;20190;-65
2023/03/22 00:37:26;;;;;;;14.65;7.85;;;12.30;99.90;;;;;;5003645;28;20191;-64
2023/03/22 00:39:52;;;;;;;13.57;7.53;;;12.30;99.90;;;;;;5003352;28;20266;-65
2023/03/22 00:42:17;;;;;;;12.75;7.60;;;12.20;99.90;;;;;;5004113;28;20286;-65
2023/03/22 00:44:43;;;;;;;15.48;7.60;;;12.20;99.90;;;;;;4995392;28;20298;-65
2023/03/22 00:47:09;;;;;;;11.48;7.63;;;12.20;99.90;;;;;;5010422;28;20192;-65
2023/03/22 00:49:36;;;;;;;12.63;8.20;;;12.20;99.90;;;;;;5014748;28;20187;-64
2023/03/22 00:52:02;;;;;;;11.35;7.57;;;12.10;99.90;;;;;;5005946;28;20243;-65
2023/03/22 00:54:27;;;;;;;14.77;7.95;;;12.10;99.90;;;;;;5009759;28;20200;-65
2023/03/22 00:56:53;;;;;;;16.25;8.75;;;12.10;99.90;;;;;;5003792;28;20195;-65
2023/03/22 00:59:19;;;;;;;14.52;7.95;;;12.10;99.90;;;;;;5009122;28;20222;-64
2023/03/22 01:01:44;;;;;;;11.90;7.75;;;12.00;99.90;;;;;;5006247;28;20195;-64
2023/03/22 01:04:16;;;;;;;13.65;7.80;;;12.00;99.90;;;;;;5011894;28;20191;-65
2023/03/22 01:06:43;;;;;;;13.90;7.35;;;12.00;99.90;;;;;;5004637;28;20589;-65
2023/03/22 01:09:13;;;;;;;10.15;7.72;;;12.00;99.90;;;;;;5011260;28;20195;-65
2023/03/22 01:11:41;;;;;;;14.80;7.38;;;12.10;99.90;;;;;;5024305;28;20187;-65
2023/03/22 01:14:08;;;;;;;11.05;6.28;;;11.90;99.90;;;;;;5004189;28;20187;-65
2023/03/22 01:16:35;;;;;;;9.93;6.93;;;11.90;99.90;;;;;;5010064;28;20572;-65
2023/03/22 01:19:02;;;;;;;13.93;7.65;;;12.00;99.90;;;;;;5007573;28;20199;-65
2023/03/22 01:21:27;;;;;;;13.82;7.15;;;12.00;99.90;;;;;;4998971;28;20275;-65
2023/03/22 01:23:53;;;;;;;11.02;6.60;;;12.00;99.90;;;;;;4999682;28;20272;-65
2023/03/22 01:26:19;;;;;;;12.10;6.70;;;11.90;99.90;;;;;;5005939;28;20192;-65
2023/03/22 01:28:44;;;;;;;9.18;6.00;;;12.00;99.90;;;;;;5010703;28;20270;-65
2023/03/22 01:31:10;;;;;;;12.50;6.93;;;11.90;99.90;;;;;;5009470;28;20723;-65
2023/03/22 01:33:36;;;;;;;10.40;5.82;;;12.00;99.90;;;;;;5012066;28;20680;-65
2023/03/22 01:36:02;;;;;;;10.73;6.90;;;12.10;99.90;;;;;;4999566;28;20219;-65
2023/03/22 01:38:28;;;;;;;9.07;6.13;;;11.90;99.90;;;;;;5001223;28;20649;-65
2023/03/22 01:40:54;;;;;;;12.90;6.65;;;11.90;99.90;;;;;;5011074;28;20317;-65
2023/03/22 01:43:20;;;;;;;9.85;5.50;;;12.00;99.90;;;;;;5005392;28;20193;-65
2023/03/22 01:45:52;;;;;;;10.15;6.10;;;11.90;99.90;;;;;;5005336;28;20193;-65
2023/03/22 01:48:32;;;;;;;8.30;5.78;;;11.80;99.90;;;;;;4999658;28;20194;-65
2023/03/22 01:51:10;;;;;;;10.38;5.53;;;11.80;99.90;;;;;;5008402;28;20551;-65
2023/03/22 01:53:43;;;;;;;9.07;6.18;;;11.70;99.90;;;;;;4999373;28;20270;-65
2023/03/22 01:56:10;;;;;;;7.80;5.90;;;11.70;99.90;;;;;;5003703;28;20655;-66
2023/03/22 01:58:37;;;;;;;14.52;6.85;;;11.70;99.90;;;;;;5009064;28;20254;-65
2023/03/22 02:01:05;;;;;;;10.25;6.13;;;11.70;99.90;;;;;;5007717;28;20216;-65
2023/03/22 02:03:46;;;;;;;8.95;5.38;;;11.80;99.90;;;;;;4995957;28;20203;-65
2023/03/22 02:06:12;;;;;;;11.93;5.30;;;11.80;99.90;;;;;;4997337;28;20236;-65
2023/03/22 02:08:39;;;;;;;14.15;6.22;;;11.70;99.90;;;;;;5005849;28;20641;-65
2023/03/22 02:11:06;;;;;;;10.02;6.07;;;11.80;99.90;;;;;;5005906;28;20187;-65
2023/03/22 02:14:17;;;;;;;9.32;6.70;;;11.80;99.90;;;;;;5000662;28;20200;-65
2023/03/22 02:16:54;;;;;;;9.02;6.20;;;11.90;99.90;;;;;;4995202;28;20330;-65
2023/03/22 02:19:41;;;;;;;8.05;5.15;;;11.80;99.90;;;;;;5010834;28;20214;-65
2023/03/22 02:22:37;;;;;;;7.18;5.30;;;11.70;99.90;;;;;;5010260;28;20191;-65
2023/03/22 02:25:26;;;;;;;9.15;5.30;;;11.70;99.90;;;;;;5003241;28;20176;-66
2023/03/22 02:28:15;;;;;;;11.43;7.00;;;11.90;99.90;;;;;;5018258;28;20188;-65
2023/03/22 02:31:07;;;;;;;6.47;4.78;;;11.90;99.90;;;;;;5007111;28;20258;-65
2023/03/22 02:33:57;;;;;;;13.55;6.18;;;12.00;99.90;;;;;;5001792;28;20362;-65
2023/03/22 02:36:33;;;;;;;11.20;5.38;;;12.00;99.90;;;;;;5009839;28;20180;-65
2023/03/22 02:39:16;;;;;;;5.95;3.85;;;11.90;99.90;;;;;;5004036;28;20210;-65
2023/03/22 02:42:05;;;;;;;9.77;4.93;;;11.90;99.90;;;;;;5012517;28;20213;-65
2023/03/22 02:45:03;;;;;;;8.25;5.05;;;12.00;99.90;;;;;;4998825;28;20224;-65
2023/03/22 02:48:03;;;;;;;6.82;4.68;;;11.90;99.90;;;;;;4999310;28;20198;-65
2023/03/22 02:50:40;;;;;;;15.80;4.63;;;11.90;99.90;;;;;;4993908;28;20557;-65
2023/03/22 02:53:23;;;;;;;8.85;5.32;;;11.90;99.90;;;;;;5044599;28;20194;-65
2023/03/22 02:56:10;;;;;;;9.57;4.45;;;11.90;99.90;;;;;;5002935;28;20171;-65
2023/03/22 02:58:38;;;;;;;12.23;4.32;;;11.90;99.90;;;;;;5007897;28;20651;-65
2023/03/22 03:01:08;;;;;;;8.60;4.55;;;12.00;99.90;;;;;;5002313;28;20250;-64
2023/03/22 03:03:38;;;;;;;6.57;5.00;;;12.00;99.90;;;;;;5009319;28;20731;-64
2023/03/22 03:06:15;;;;;;;4.97;4.30;;;11.90;99.90;;;;;;5003905;28;20175;-64
2023/03/22 03:08:43;;;;;;;6.65;4.32;;;11.90;99.90;;;;;;5010558;28;20187;-64
2023/03/22 03:11:09;;;;;;;6.80;4.40;;;11.80;99.90;;;;;;5001231;28;20187;-64
2023/03/22 03:13:35;;;;;;;6.43;4.18;;;11.70;99.90;;;;;;5002958;28;20184;-64
2023/03/22 03:16:04;;;;;;;6.45;4.20;;;11.80;99.90;;;;;;5008353;28;20241;-65
2023/03/22 03:18:49;;;;;;;8.10;4.75;;;11.80;99.90;;;;;;4997442;28;20184;-64
2023/03/22 03:21:31;;;;;;;7.82;3.83;;;11.70;99.90;;;;;;5005929;28;20211;-64
2023/03/22 03:24:18;;;;;;;7.88;4.60;;;11.60;99.90;;;;;;4997640;28;20214;-65
2023/03/22 03:27:07;;;;;;;7.53;4.80;;;11.60;99.90;;;;;;4999696;28;20191;-64
2023/03/22 03:29:55;;;;;;;5.88;4.50;;;11.60;99.90;;;;;;4995933;28;20176;-65
2023/03/22 03:32:34;;;;;;;8.45;3.45;;;11.70;99.90;;;;;;4998272;28;20528;-65
2023/03/22 03:35:25;;;;;;;14.75;4.78;;;11.50;99.90;;;;;;4994738;28;20627;-65
2023/03/22 03:38:00;;;;;;;7.60;3.72;;;11.40;99.90;;;;;;4996739;28;20183;-65
2023/03/22 03:40:32;;;;;;;6.20;4.40;;;11.30;99.90;;;;;;4994770;28;20752;-65
2023/03/22 03:43:02;;;;;;;6.47;3.70;;;11.30;99.90;;;;;;4998461;28;20302;-65
2023/03/22 03:45:28;;;;;;;6.78;3.60;;;11.40;99.90;;;;;;4999376;28;20653;-65
2023/03/22 03:47:58;;;;;;;5.97;4.10;;;11.30;99.90;;;;;;5010424;28;20631;-65
2023/03/22 03:50:25;;;;;;;7.68;4.53;;;11.20;99.90;;;;;;5004990;28;20210;-65
2023/03/22 03:52:52;;;;;;;5.95;4.05;;;11.30;99.90;;;;;;5010602;28;20667;-65
2023/03/22 03:55:19;;;;;;;7.80;4.13;;;11.30;99.90;;;;;;5002503;28;20640;-65
2023/03/22 03:57:44;;;;;;;4.70;3.47;;;11.20;99.90;;;;;;5008577;28;20192;-64
2023/03/22 04:00:13;;;;;;;5.20;3.30;;;11.20;99.90;;;;;;5000256;28;20254;-65
2023/03/22 04:02:39;;;;;;;10.68;3.55;;;11.20;99.90;;;;;;5006907;28;20245;-65
2023/03/22 04:05:06;;;;;;;8.68;4.25;;;11.20;99.90;;;;;;5007657;28;20187;-65
2023/03/22 04:07:32;;;;;;;4.72;3.03;;;11.20;99.90;;;;;;5012640;28;20191;-65
2023/03/22 04:09:58;;;;;;;6.00;3.13;;;11.20;99.90;;;;;;5001515;28;20196;-64
2023/03/22 04:12:24;;;;;;;7.55;3.28;;;11.20;99.90;;;;;;5014403;28;20237;-65
2023/03/22 04:14:50;;;;;;;9.43;4.33;;;11.10;99.90;;;;;;5008602;28;20191;-65
2023/03/22 04:17:16;;;;;;;4.90;2.77;;;11.20;99.90;;;;;;5010977;28;20223;-64
2023/03/22 04:19:43;;;;;;;4.63;3.40;;;11.30;99.90;;;;;;5010097;28;20218;-65
2023/03/22 04:22:13;;;;;;;6.40;3.80;;;11.30;99.90;;;;;;5011854;28;20188;-65
2023/03/22 04:24:40;;;;;;;8.53;3.27;;;11.30;99.90;;;;;;5009250;28;20545;-65
2023/03/22 04:27:07;;;;;;;7.50;3.47;;;11.30;99.90;;;;;;5008757;28;20192;-65
2023/03/22 04:29:35;;;;;;;3.05;2.67;;;11.30;99.90;;;;;;5013648;28;20191;-64
2023/03/22 04:32:04;;;;;;;6.70;3.58;;;11.20;99.90;;;;;;5012467;28;20183;-65
2023/03/22 04:34:30;;;;;;;4.37;2.83;;;11.30;99.90;;;;;;5013154;28;20676;-65
2023/03/22 04:36:56;;;;;;;3.17;2.90;;;11.30;99.90;;;;;;5007809;28;20273;-65
2023/03/22 04:39:22;;;;;;;7.80;4.07;;;11.30;99.90;;;;;;5012984;28;20321;-64
2023/03/22 04:41:47;;;;;;;5.10;2.43;;;11.30;99.90;;;;;;5006162;28;20716;-65
2023/03/22 04:44:13;;;;;;;4.87;3.87;;;11.40;99.90;;;;;;5003740;28;20644;-66
2023/03/22 04:46:39;;;;;;;5.60;3.97;;;11.30;99.90;;;;;;5012322;28;20656;-65
2023/03/22 04:49:05;;;;;;;3.72;2.90;;;11.30;99.90;;;;;;5012996;28;20184;-65
2023/03/22 04:51:31;;;;;;;5.80;2.67;;;11.20;99.90;;;;;;5013035;28;20184;-65
2023/03/22 04:53:57;;;;;;;3.77;2.23;;;11.30;99.90;;;;;;5007748;28;20179;-65
2023/03/22 04:56:23;;;;;;;7.27;2.90;;;11.30;99.90;;;;;;5001351;28;20656;-65
2023/03/22 04:58:49;;;;;;;7.32;3.15;;;11.40;99.90;;;;;;5046057;28;20198;-65
2023/03/22 05:01:16;;;;;;;4.25;3.00;;;11.50;99.90;;;;;;5010143;28;20208;-65
2023/03/22 05:03:44;;;;;;;4.97;3.83;;;11.60;99.90;;;;;;5044548;28;20191;-65
2023/03/22 05:06:11;;;;;;;10.47;3.77;;;11.50;99.90;;;;;;5010206;28;20643;-66
2023/03/22 05:08:37;;;;;;;6.85;4.10;;;11.50;99.90;;;;;;5007763;28;20223;-65
2023/03/22 05:11:09;;;;;;;7.50;4.22;;;11.40;99.90;;;;;;4990572;28;20630;-64
2023/03/22 05:13:36;;;;;;;7.53;4.50;;;11.50;99.90;;;;;;5000481;28;20196;-65
2023/03/22 05:16:02;;;;;;;6.43;4.17;;;11.40;99.90;;;;;;5009768;28;20317;-64
2023/03/22 05:18:29;;;;;;;6.73;3.77;;;11.10;99.90;;;;;;5009914;28;20187;-66
2023/03/22 05:20:56;;;;;;;10.87;4.70;;;11.10;99.90;;;;;;5010585;28;20208;-64
2023/03/22 05:23:22;;;;;;;4.87;3.70;;;11.20;99.90;;;;;;5039643;28;20192;-65
2023/03/22 05:25:50;;;;;;;7.28;4.03;;;11.10;99.90;;;;;;5001328;28;20345;-65
2023/03/22 05:28:21;;;;;;;11.93;4.45;;;11.20;99.90;;;;;;5001558;28;20188;-64
2023/03/22 05:30:48;;;;;;;4.50;4.10;;;11.20;99.90;;;;;;5009157;28;20200;-64
2023/03/22 05:33:15;;;;;;;8.60;3.60;;;11.20;99.90;;;;;;4995024;28;20664;-65
2023/03/22 05:35:42;;;;;;;6.03;4.23;;;11.20;99.90;;;;;;5011169;28;20180;-65
2023/03/22 05:38:08;;;;;;;7.90;3.37;;;11.20;99.90;;;;;;5010521;28;20231;-64
2023/03/22 05:40:35;;;;;;;10.60;3.53;;;11.30;99.90;;;;;;5012672;28;20210;-64
2023/03/22 05:43:00;;;;;;;5.13;4.07;;;11.30;99.90;;;;;;5009449;28;20195;-64
2023/03/22 05:45:26;;;;;;;5.10;3.27;;;11.30;99.90;;;;;;5003227;28;20198;-64
2023/03/22 05:47:52;;;;;;;5.70;3.27;;;11.30;99.90;;;;;;5009124;28;20192;-64
2023/03/22 05:50:20;;;;;;;5.57;2.90;;;11.20;99.90;;;;;;5011695;28;20191;-64
2023/03/22 05:52:47;;;;;;;4.20;2.90;;;11.20;99.90;;;;;;5007571;28;20187;-64
2023/03/22 05:55:16;;;;;;;8.43;3.50;;;11.30;99.90;;;;;;5001585;28;20199;-64
2023/03/22 05:57:43;;;;;;;7.80;2.93;;;11.40;99.90;;;;;;5007695;28;20235;-64
2023/03/22 06:00:15;;;;;;;5.10;2.70;;;11.30;99.90;;;;;;5011132;28;20295;-65
2023/03/22 06:02:45;;;;;;;6.50;2.87;;;11.30;99.90;;;;;;5012217;28;20187;-63
2023/03/22 06:05:12;;;;;;;9.03;2.90;;;11.20;99.90;;;;;;5000709;28;20194;-64
2023/03/22 06:07:38;;;;;;;6.70;3.50;;;11.20;99.90;;;;;;5006839;28;20180;-64
2023/03/22 06:10:05;;;;;;;8.53;2.50;;;11.20;99.90;;;;;;5011118;28;20195;-63
2023/03/22 06:12:31;;;;;;;9.97;2.43;;;11.20;99.90;;;;;;4996693;28;20346;-64
2023/03/22 06:14:57;;;;;;;4.77;2.50;;;11.30;99.90;;;;;;5036955;28;20192;-63
2023/03/22 06:17:23;;;;;;;6.53;3.37;;;11.40;99.90;;;;;;5025197;28;20274;-64
2023/03/22 06:19:49;;;;;;;4.45;2.83;;;11.30;99.90;;;;;;5000775;28;20239;-64
2023/03/22 06:22:16;;;;;;;6.07;2.10;;;11.20;99.90;;;;;;5043306;28;20608;-64
2023/03/22 06:24:42;;;;;;;3.73;2.27;;;11.30;99.90;;;;;;4982142;28;20274;-64
2023/03/22 06:27:08;;;;;;;6.50;2.60;;;11.30;99.90;;;;;;5008559;28;20318;-64
2023/03/22 06:29:34;;;;;;;12.82;2.10;;;11.30;99.90;;;;;;5009908;28;20198;-64
2023/03/22 06:32:00;;;;;;;5.85;1.90;;;11.20;99.90;;;;;;5002598;28;20199;-65
2023/03/22 06:34:26;;;;;;;5.07;1.80;;;11.30;99.90;;;;;;5011618;28;20227;-64
2023/03/22 06:36:52;;;;;;;3.70;2.60;;;11.30;99.90;;;;;;5011227;28;20219;-66
2023/03/22 06:39:18;;;;;;;6.63;2.07;;;11.40;99.90;;;;;;5003580;28;20272;-64
2023/03/22 06:41:44;;;;;;;7.13;2.07;;;11.40;99.90;;;;;;5010131;28;20403;-64
2023/03/22 06:44:10;;;;;;;4.22;1.77;;;11.50;99.90;;;;;;5002395;28;20196;-64
2023/03/22 06:46:36;;;;;;;4.55;2.00;;;11.50;99.90;;;;;;5009314;28;20282;-65
2023/03/22 06:49:03;;;;;;;5.45;2.35;;;11.60;99.90;;;;;;5008867;28;20341;-65
2023/03/22 06:51:29;;;;;;;3.58;2.08;;;11.70;99.90;;;;;;4999302;28;20188;-64
2023/03/22 06:53:54;;;;;;;3.50;2.17;;;11.70;99.90;;;;;;5011095;28;20206;-64
2023/03/22 06:56:20;;;;;;;3.08;2.15;;;11.70;99.90;;;;;;5011480;28;20557;-65
2023/03/22 06:58:46;;;;;;;5.82;2.80;;;11.70;99.90;;;;;;5005508;28;20187;-64
2023/03/22 07:01:12;;;;;;;5.93;2.40;;;11.80;99.90;;;;;;5009403;28;20213;-64
2023/03/22 07:03:38;;;;;;;4.35;2.63;;;11.90;99.90;;;;;;5004458;28;20588;-65
2023/03/22 07:06:06;;;;;;;9.43;2.53;;;12.00;99.90;;;;;;5005270;28;20194;-65
2023/03/22 07:08:33;;;;;;;4.30;3.05;;;12.10;99.90;;;;;;5008504;28;20211;-66
2023/03/22 07:10:59;;;;;;;5.55;1.80;;;12.20;99.90;;;;;;5005510;28;20199;-64
2023/03/22 07:13:25;;;;;;;8.23;2.63;;;12.20;99.90;;;;;;5007394;28;20210;-65
2023/03/22 07:15:59;;;;;;;8.40;3.08;;;12.30;99.90;;;;;;5007036;28;20553;-64
2023/03/22 07:18:25;;;;;;;2.38;2.17;;;12.50;99.90;;;;;;5003715;28;20191;-65
2023/03/22 07:20:51;;;;;;;3.33;2.13;;;12.70;99.90;;;;;;5012303;28;20242;-69
2023/03/22 07:23:17;;;;;;;7.13;2.00;;;12.80;99.90;;;;;;5016147;28;20207;-64
2023/03/22 07:25:45;;;;;;;3.70;2.42;;;13.00;99.90;;;;;;4995552;28;20192;-64
2023/03/22 07:28:11;;;;;;;4.97;2.58;;;13.10;99.90;;;;;;5008674;28;20184;-64
2023/03/22 07:30:38;;;;;;;3.45;2.20;;;13.30;99.90;;;;;;5013997;28;20188;-64
2023/03/22 07:33:05;;;;;;;6.05;2.33;;;13.60;99.90;;;;;;5012563;28;20187;-65
2023/03/22 07:35:31;;;;;;;6.65;3.45;;;14.20;99.90;;;;;;5011111;28;20184;-66
2023/03/22 07:37:58;;;;;;;3.20;1.58;;;14.10;99.90;;;;;;5011371;28;20517;-65
2023/03/22 07:40:24;;;;;;;3.72;2.22;;;13.70;99.90;;;;;;5010013;28;20612;-65
2023/03/22 07:42:50;;;;;;;5.40;2.30;;;13.50;99.90;;;;;;5012298;28;20195;-65
2023/03/22 07:45:18;;;;;;;2.38;2.13;;;13.30;99.90;;;;;;5004486;28;20200;-66
2023/03/22 07:47:44;;;;;;;3.95;2.75;;;13.10;99.90;;;;;;5002706;28;20653;-65
2023/03/22 07:50:11;;;;;;;4.55;1.90;;;13.00;99.90;;;;;;5013956;28;20341;-65
2023/03/22 07:52:37;;;;;;;6.80;2.35;;;13.00;99.90;;;;;;5004252;28;20188;-67
2023/03/22 07:55:04;;;;;;;4.97;2.70;;;13.00;99.90;;;;;;5027078;28;20266;-65
2023/03/22 07:57:29;;;;;;;5.03;3.30;;;12.90;99.90;;;;;;5011446;28;20184;-65
2023/03/22 07:59:55;;;;;;;5.63;2.35;;;13.10;99.90;;;;;;5012426;28;20551;-66
2023/03/22 08:02:22;;;;;;;3.58;2.30;;;13.00;99.90;;;;;;5011000;28;20198;-66
2023/03/22 08:04:49;;;;;;;3.15;2.47;;;13.10;99.90;;;;;;5003524;28;20258;-66
2023/03/22 08:07:17;;;;;;;8.05;2.13;;;13.20;99.90;;;;;;5001556;28;20180;-65
2023/03/22 08:09:44;;;;;;;6.28;3.30;;;13.40;99.90;;;;;;5009643;28;20230;-65
2023/03/22 08:12:10;;;;;;;8.30;2.70;;;13.40;99.90;;;;;;5006484;28;20616;-66
2023/03/22 08:14:36;;;;;;;4.88;2.67;;;13.40;99.90;;;;;;5010597;28;20269;-66
2023/03/22 08:17:05;;;;;;;8.10;3.40;;;13.40;99.90;;;;;;5013274;28;20684;-66
2023/03/22 08:19:32;;;;;;;4.10;3.00;;;13.30;99.90;;;;;;5012186;28;20550;-66
2023/03/22 08:21:58;;;;;;;5.40;2.75;;;13.20;99.90;;;;;;5013130;28;20192;-64
2023/03/22 08:24:25;;;;;;;9.50;2.55;;;13.20;99.90;;;;;;5009955;28;20261;-65
2023/03/22 08:26:51;;;;;;;5.82;2.60;;;13.30;99.90;;;;;;5009450;28;20508;-64
2023/03/22 08:29:18;;;;;;;6.55;2.72;;;13.40;99.90;;;;;;4989771;28;20192;-64
2023/03/22 08:31:44;;;;;;;7.57;2.40;;;13.40;99.90;;;;;;5011908;28;20595;-64
2023/03/22 08:34:10;;;;;;;4.43;2.83;;;13.50;99.90;;;;;;5002235;28;21545;-65
2023/03/22 08:36:36;;;;;;;6.80;2.90;;;13.70;99.90;;;;;;5007671;28;20192;-64
2023/03/22 08:39:03;;;;;;;7.45;2.55;;;13.90;99.90;;;;;;5009518;28;20257;-65
2023/03/22 08:41:29;;;;;;;7.70;2.92;;;14.10;99.90;;;;;;5014198;28;20265;-64
2023/03/22 08:43:56;;;;;;;5.30;2.50;;;14.00;99.90;;;;;;5011648;28;20199;-64
2023/03/22 08:46:22;;;;;;;3.45;2.28;;;14.00;99.90;;;;;;5004697;28;20549;-67
2023/03/22 08:48:49;;;;;;;2.72;2.17;;;13.90;99.90;;;;;;5010463;28;20215;-66
2023/03/22 08:51:20;;;;;;;2.85;2.53;;;13.80;99.90;;;;;;5005791;28;20190;-66
2023/03/22 08:53:46;;;;;;;5.18;2.53;;;13.70;99.90;;;;;;5015184;28;20520;-67
2023/03/22 08:56:21;;;;;;;8.65;2.17;;;13.60;99.90;;;;;;5012058;28;20270;-66
2023/03/22 08:58:47;;;;;;;7.15;2.72;;;13.50;99.90;;;;;;5024973;28;20599;-65
2023/03/22 09:01:14;;;;;;;9.75;2.53;;;13.60;99.90;;;;;;5016835;28;20238;-67
2023/03/22 09:03:40;;;;;;;3.20;2.10;;;13.50;99.90;;;;;;5016907;28;20587;-67
2023/03/22 09:06:06;;;;;;;11.10;2.85;;;13.60;99.90;;;;;;5004316;28;20665;-67
2023/03/22 09:08:32;;;;;;;5.95;2.30;;;13.50;99.90;;;;;;5004895;28;20191;-68
2023/03/22 09:10:58;;;;;;;4.95;2.45;;;13.50;99.90;;;;;;5014422;28;20619;-67
2023/03/22 09:13:24;;;;;;;4.45;2.92;;;13.50;99.90;;;;;;5021602;28;20191;-66
2023/03/22 09:15:53;;;;;;;7.22;2.10;;;13.60;99.90;;;;;;5013436;28;20207;-68
2023/03/22 09:18:19;;;;;;;4.22;2.35;;;13.60;99.90;;;;;;5005326;28;20710;-67
2023/03/22 09:20:45;;;;;;;5.18;2.65;;;13.80;99.90;;;;;;5016886;28;20250;-65
2023/03/22 09:23:14;;;;;;;10.15;2.45;;;13.80;99.90;;;;;;5010856;28;20274;-66
2023/03/22 09:25:42;;;;;;;2.80;2.50;;;13.80;99.90;;;;;;5007084;28;20928;-70
2023/03/22 09:28:08;;;;;;;4.10;2.10;;;13.70;99.90;;;;;;4999888;28;20183;-66
2023/03/22 09:30:35;;;;;;;2.55;2.05;;;13.70;99.90;;;;;;5012718;28;20238;-66
2023/03/22 09:33:01;;;;;;;4.38;2.53;;;13.70;99.90;;;;;;5001775;28;20188;-67
2023/03/22 09:35:27;;;;;;;6.47;2.03;;;13.40;99.90;;;;;;5009801;28;20183;-65
2023/03/22 09:37:54;;;;;;;3.63;2.25;;;13.40;99.90;;;;;;4998991;28;20972;-65
2023/03/22 09:40:24;;;;;;;6.18;2.35;;;13.50;99.90;;;;;;5010588;28;20204;-66
2023/03/22 09:42:51;;;;;;;6.53;2.10;;;13.60;99.90;;;;;;5006417;28;20549;-64
2023/03/22 09:45:31;;;;;;;9.80;2.50;;;13.60;99.90;;;;;;5000256;28;20262;-66
2023/03/22 09:47:58;;;;;;;4.13;2.20;;;13.60;99.90;;;;;;5021947;28;20591;-66
2023/03/22 09:50:31;;;;;;;5.80;2.40;;;13.50;99.90;;;;;;5016368;28;20274;-67
2023/03/22 09:52:59;;;;;;;7.40;2.78;;;13.40;99.90;;;;;;5007342;28;20179;-66
2023/03/22 09:55:41;;;;;;;3.58;2.00;;;13.30;99.90;;;;;;5005839;28;20270;-67
2023/03/22 09:58:27;;;;;;;4.50;1.92;;;13.40;99.90;;;;;;5007389;28;20188;-67
2023/03/22 10:01:30;;;;;;;2.00;1.58;;;13.30;99.90;;;;;;5009259;28;20202;-67
2023/03/22 10:04:01;;;;;;;2.83;1.70;;;13.20;99.90;;;;;;5002103;28;20183;-67
2023/03/22 10:06:27;;;;;;;5.05;2.10;;;13.10;99.90;;;;;;5008550;28;20218;-66
2023/03/22 10:09:08;;;;;;;1.67;1.17;;;13.10;99.90;;;;;;5009559;28;20203;-69
2023/03/22 10:11:40;;;;;;;3.38;2.53;;;13.00;99.90;;;;;;5015155;28;20234;-68
2023/03/22 10:14:24;;;;;;;4.57;2.20;;;13.10;99.90;;;;;;5004407;28;20199;-66
2023/03/22 10:16:53;;;;;;;2.13;1.38;;;13.10;99.90;;;;;;5018830;28;20234;-67
2023/03/22 10:19:27;;;;;;;4.00;1.77;;;13.20;99.90;;;;;;5010410;28;20215;-67
2023/03/22 10:21:57;;;;;;;3.47;1.35;;;13.00;99.90;;;;;;5012026;28;20198;-66
2023/03/22 10:24:35;;;;;;;5.03;1.67;;;13.00;99.90;;;;;;5016547;28;20187;-67
2023/03/22 10:27:01;;;;;;;4.63;1.63;;;13.10;99.90;;;;;;5034559;28;20651;-67
2023/03/22 10:29:38;;;;;;;10.20;2.00;;;12.90;99.90;;;;;;5007854;28;20191;-67
2023/03/22 10:32:18;;;;;;;6.15;1.75;;;12.80;99.90;;;;;;4994378;28;20186;-67
2023/03/22 10:34:45;;;;;;;1.45;1.35;;;13.00;99.90;;;;;;5020537;28;20183;-66
2023/03/22 10:37:16;;;;;;;4.10;2.20;;;13.10;99.90;;;;;;5004766;28;20185;-67
2023/03/22 10:39:49;;;;;;;2.30;1.98;;;13.10;99.90;;;;;;5002700;28;20207;-67
2023/03/22 10:42:22;;;;;;;4.45;2.08;;;13.10;99.90;;;;;;5005993;28;20183;-65
2023/03/22 10:44:51;;;;;;;3.42;2.15;;;13.10;99.90;;;;;;5005795;28;20180;-66
2023/03/22 10:47:23;;;;;;;8.00;2.45;;;12.90;99.90;;;;;;4999738;28;20183;-65
2023/03/22 10:49:53;;;;;;;3.83;1.95;;;12.80;99.90;;;;;;5005345;28;20191;-66
2023/03/22 10:52:40;;;;;;;8.50;2.53;;;12.90;99.90;;;;;;5003495;28;20271;-64
2023/03/22 10:55:12;;;;;;;7.20;3.28;;;13.20;99.90;;;;;;5009568;28;20175;-65
2023/03/22 10:57:42;;;;;;;8.48;3.17;;;13.30;99.90;;;;;;5005922;28;20194;-65
2023/03/22 11:00:11;;;;;;;11.23;2.97;;;13.30;99.90;;;;;;5010318;28;20675;-65
2023/03/22 11:02:46;;;;;;;3.85;2.40;;;13.30;99.90;;;;;;5007958;28;20543;-66
2023/03/22 11:05:23;;;;;;;6.45;2.67;;;13.30;99.90;;;;;;5010426;28;20194;-65
2023/03/22 11:07:49;;;;;;;7.53;2.80;;;13.50;99.90;;;;;;5003550;28;20176;-66
2023/03/22 11:10:22;;;;;;;4.45;2.42;;;13.40;99.90;;;;;;5011535;28;20656;-65
2023/03/22 11:12:51;;;;;;;3.30;2.70;;;13.40;99.90;;;;;;4997374;28;20172;-65
2023/03/22 11:15:27;;;;;;;4.55;3.22;;;13.60;99.90;;;;;;5010107;28;20547;-65
2023/03/22 11:17:59;;;;;;;6.63;2.83;;;13.60;99.90;;;;;;5005252;28;20238;-66
2023/03/22 11:20:25;;;;;;;4.63;2.65;;;13.70;99.90;;;;;;5007565;28;20258;-66
2023/03/22 11:22:50;;;;;;;5.80;3.00;;;13.80;99.90;;;;;;5008768;28;20199;-66
2023/03/22 11:25:29;;;;;;;3.70;3.15;;;13.70;99.90;;;;;;5009389;28;20212;-66
2023/03/22 11:28:04;;;;;;;3.53;2.75;;;13.80;99.90;;;;;;5008157;28;20700;-67
2023/03/22 11:30:32;;;;;;;7.88;2.90;;;13.90;99.90;;;;;;5000638;28;20184;-67
2023/03/22 11:33:06;;;;;;;6.03;3.17;;;13.90;99.90;;;;;;5009028;28;20695;-66
2023/03/22 11:35:36;;;;;;;5.57;3.08;;;13.80;99.90;;;;;;5008678;28;20180;-66
2023/03/22 11:38:02;;;;;;;6.20;3.30;;;13.70;99.90;;;;;;5008445;28;20655;-65
2023/03/22 11:40:31;;;;;;;8.02;3.15;;;13.70;99.90;;;;;;5009088;28;20207;-67
2023/03/22 11:43:09;;;;;;;5.97;3.47;;;13.70;99.90;;;;;;5007018;28;20231;-65
2023/03/22 11:45:39;;;;;;;5.60;3.65;;;13.60;99.90;;;;;;5009139;28;20278;-66
2023/03/22 11:48:11;;;;;;;6.68;3.88;;;13.50;99.90;;;;;;5007932;28;20191;-66
2023/03/22 11:50:40;;;;;;;8.40;4.88;;;13.60;99.90;;;;;;5007784;28;20186;-66
2023/03/22 11:53:12;;;;;;;5.43;3.78;;;13.80;99.90;;;;;;5002530;28;20266;-65
2023/03/22 11:55:37;;;;;;;7.95;4.35;;;13.90;99.90;;;;;;4997521;28;20183;-66
2023/03/22 11:58:04;;;;;;;10.35;4.90;;;14.10;99.90;;;;;;5006214;28;20183;-66
2023/03/22 12:00:36;;;;;;;9.35;4.93;;;14.40;99.90;;;;;;5002678;28;20657;-66
2023/03/22 12:03:25;;;;;;;8.32;5.35;;;14.70;99.90;;;;;;5022283;28;20262;-64
2023/03/22 12:05:52;;;;;;;12.55;5.28;;;14.80;99.90;;;;;;5015362;28;20179;-65
2023/03/22 12:08:43;;;;;;;3.95;3.33;;;15.00;99.90;;;;;;5010332;28;20183;-64
2023/03/22 12:11:32;;;;;;;2.95;2.75;;;15.00;99.90;;;;;;5005430;28;20179;-65
2023/03/22 12:14:03;;;;;;;5.78;3.88;;;14.80;99.90;;;;;;5009527;28;20191;-65
2023/03/22 12:16:43;;;;;;;7.78;3.78;;;14.70;99.90;;;;;;5010728;28;20317;-64
2023/03/22 12:19:37;;;;;;;5.63;3.92;;;14.50;99.90;;;;;;5036313;28;20263;-65
2023/03/22 12:22:17;;;;;;;12.10;4.95;;;14.60;99.90;;;;;;5003979;28;20200;-66
2023/03/22 12:24:44;;;;;;;10.25;4.25;;;14.80;99.90;;;;;;5006386;28;20282;-65
2023/03/22 12:27:20;;;;;;;10.45;4.68;;;14.80;99.90;;;;;;5014013;28;20640;-65
2023/03/22 12:30:09;;;;;;;9.15;4.38;;;14.70;99.90;;;;;;5001519;28;20191;-65
2023/03/22 12:32:48;;;;;;;8.48;3.78;;;14.60;99.90;;;;;;5013373;28;20179;-65
2023/03/22 12:35:20;;;;;;;9.73;4.80;;;14.60;99.90;;;;;;5008226;28;20265;-66
2023/03/22 12:37:50;;;;;;;9.60;4.70;;;14.40;99.90;;;;;;5018676;28;20203;-63
2023/03/22 12:40:31;;;;;;;8.32;4.95;;;14.40;99.90;;;;;;5023298;28;20202;-66
2023/03/22 12:43:29;;;;;;;6.63;5.10;;;14.40;99.90;;;;;;5009455;28;20191;-66
2023/03/22 12:46:00;;;;;;;10.20;4.65;;;14.20;99.90;;;;;;5039038;28;20241;-67
2023/03/22 12:48:40;;;;;;;7.38;4.38;;;14.00;99.90;;;;;;5011549;28;20425;-66
2023/03/22 12:51:08;;;;;;;11.38;6.60;;;14.10;99.90;;;;;;5001307;28;20184;-66
2023/03/22 12:53:41;;;;;;;8.23;5.82;;;14.10;99.90;;;;;;5008994;28;20270;-66
2023/03/22 12:56:20;;;;;;;11.90;5.97;;;14.00;99.90;;;;;;5007969;28;20190;-67
2023/03/22 12:58:50;;;;;;;8.32;6.07;;;14.00;99.90;;;;;;5013277;28;20217;-65
2023/03/22 13:01:19;;;;;;;8.45;5.70;;;13.90;99.90;;;;;;5009708;28;20206;-66